createdAt,value
2023-01-26T00:01:38.014Z,3.55
2023-01-26T00:06:39.465Z,5.25
2023-01-26T00:11:41.061Z,3.53
2023-01-26T00:16:42.583Z,2.58
2023-01-26T00:21:44.019Z,3.55
2023-01-26T00:26:45.525Z,3.30
2023-01-26T00:31:47.055Z,3.25
2023-01-26T00:36:48.596Z,3.03
2023-01-26T00:42:08.685Z,2.63
2023-01-26T00:47:11.901Z,4.05
2023-01-26T00:52:13.394Z,3.00
2023-01-26T00:57:14.861Z,3.13
2023-01-26T01:02:16.362Z,1.42
2023-01-26T01:07:17.829Z,2.83
2023-01-26T01:12:19.324Z,2.08
2023-01-26T01:17:20.808Z,1.95
2023-01-26T01:22:22.287Z,2.63
2023-01-26T01:27:25.085Z,4.70
2023-01-26T01:32:26.546Z,2.83
2023-01-26T01:37:29.181Z,2.88
2023-01-26T01:42:30.865Z,2.83
2023-01-26T01:47:32.940Z,2.75
2023-01-26T01:52:34.457Z,2.90
2023-01-26T01:57:45.133Z,4.63
2023-01-26T02:03:09.308Z,3.72
2023-01-26T02:08:11.488Z,3.20
2023-01-26T02:13:13.569Z,3.33
2023-01-26T02:18:16.438Z,2.22
2023-01-26T02:23:17.907Z,3.47
2023-01-26T02:28:21.303Z,3.42
2023-01-26T02:33:27.476Z,3.58
2023-01-26T02:38:30.935Z,3.95
2023-01-26T02:43:33.365Z,5.70
2023-01-26T02:48:53.656Z,2.00
2023-01-26T02:53:55.108Z,2.35
2023-01-26T02:58:56.599Z,3.20
2023-01-26T03:03:58.056Z,2.95
2023-01-26T03:08:59.514Z,2.55
2023-01-26T03:14:00.972Z,4.53
2023-01-26T03:19:05.154Z,3.70
2023-01-26T03:24:28.074Z,2.15
2023-01-26T03:29:29.570Z,3.00
2023-01-26T03:34:31.119Z,3.45
2023-01-26T03:39:51.310Z,3.55
2023-01-26T03:45:11.691Z,2.38
2023-01-26T03:50:31.689Z,3.85
2023-01-26T03:55:51.829Z,3.08
2023-01-26T04:00:53.344Z,4.10
2023-01-26T04:06:16.878Z,3.25
2023-01-26T04:11:18.376Z,3.58
2023-01-26T04:16:38.274Z,2.42
2023-01-26T04:21:39.801Z,2.83
2023-01-26T04:26:42.013Z,3.78
2023-01-26T04:31:43.589Z,3.15
2023-01-26T04:36:45.108Z,4.13
2023-01-26T04:41:46.650Z,4.72
2023-01-26T04:46:48.945Z,6.47
2023-01-26T04:51:50.464Z,4.60
2023-01-26T04:56:51.965Z,7.18
2023-01-26T05:01:53.495Z,7.00
2023-01-26T05:06:54.999Z,4.90
2023-01-26T05:12:16.450Z,4.00
2023-01-26T05:17:17.962Z,5.53
2023-01-26T05:22:19.444Z,4.57
2023-01-26T05:27:21.132Z,5.35
2023-01-26T05:32:22.652Z,5.18
2023-01-26T05:37:25.006Z,5.22
2023-01-26T05:42:26.968Z,4.38
2023-01-26T05:47:28.488Z,4.97
2023-01-26T05:52:29.994Z,5.38
2023-01-26T05:57:31.425Z,5.25
2023-01-26T06:02:32.964Z,4.90
2023-01-26T06:07:34.592Z,7.18
2023-01-26T06:12:36.567Z,8.27
2023-01-26T06:17:38.033Z,5.57
2023-01-26T06:22:39.474Z,4.03
2023-01-26T06:27:42.550Z,3.30
2023-01-26T06:32:46.965Z,4.15
2023-01-26T06:37:50.044Z,6.38
2023-01-26T06:42:51.983Z,6.28
2023-01-26T06:47:53.695Z,3.63
2023-01-26T06:52:56.155Z,3.92
2023-01-26T06:57:57.657Z,3.67
2023-01-26T07:02:59.151Z,6.28
2023-01-26T07:08:02.397Z,3.72
2023-01-26T07:13:04.632Z,3.35
2023-01-26T07:18:06.075Z,3.33
2023-01-26T07:23:07.554Z,3.42
2023-01-26T07:28:10.783Z,3.00
2023-01-26T07:33:12.406Z,3.00
2023-01-26T07:38:13.951Z,4.90
2023-01-26T07:43:15.732Z,5.88
2023-01-26T07:48:18.559Z,8.02
2023-01-26T07:53:21.325Z,1.48
2023-01-26T07:58:22.772Z,1.55
2023-01-26T08:03:24.521Z,1.10
2023-01-26T08:08:26.387Z,0.80
2023-01-26T08:13:35.519Z,0.98
2023-01-26T08:18:42.072Z,2.22
2023-01-26T08:23:43.666Z,0.63
2023-01-26T08:28:45.522Z,0.93
2023-01-26T08:33:48.027Z,0.30
2023-01-26T08:38:49.836Z,0.80
2023-01-26T08:43:53.029Z,0.73
2023-01-26T08:48:54.579Z,0.82
2023-01-26T08:53:56.100Z,1.85
2023-01-26T08:58:57.591Z,0.45
2023-01-26T09:03:59.126Z,0.70
2023-01-26T09:09:00.697Z,0.90
2023-01-26T09:14:02.161Z,2.97
2023-01-26T09:19:03.906Z,0.35
2023-01-26T09:24:05.714Z,0.95
2023-01-26T09:29:07.219Z,0.30
2023-01-26T09:34:08.713Z,0.30
2023-01-26T09:39:10.510Z,0.50
2023-01-26T09:44:18.679Z,3.83
2023-01-26T09:49:38.763Z,0.68
2023-01-26T09:54:42.645Z,0.75
2023-01-26T09:59:52.914Z,0.20
2023-01-26T10:09:56.596Z,2.40
2023-01-26T10:15:08.528Z,0.55
2023-01-26T10:20:10.281Z,0.30
2023-01-26T10:25:29.901Z,0.10
2023-01-26T10:30:31.445Z,0.10
2023-01-26T10:35:33.025Z,0.30
2023-01-26T10:40:42.772Z,1.48
2023-01-26T10:45:46.146Z,0.65
2023-01-26T10:50:48.302Z,0.40
2023-01-26T10:56:00.894Z,1.23
2023-01-26T11:01:02.430Z,0.20
2023-01-26T11:06:17.210Z,1.10
2023-01-26T11:11:30.138Z,1.35
2023-01-26T11:16:31.838Z,1.05
2023-01-26T11:21:45.644Z,0.65
2023-01-26T11:27:01.877Z,0.75
2023-01-26T11:32:03.326Z,3.35
2023-01-26T11:37:07.885Z,0.68
2023-01-26T11:42:16.576Z,0.20
2023-01-26T11:47:24.304Z,0.57
2023-01-26T11:52:28.866Z,0.30
2023-01-26T11:57:49.027Z,0.60
2023-01-26T12:02:55.901Z,0.40
2023-01-26T12:08:26.969Z,1.42
2023-01-26T12:13:35.093Z,0.05
2023-01-26T12:18:53.117Z,0.55
2023-01-26T12:24:04.254Z,4.63
2023-01-26T12:29:15.538Z,0.50
2023-01-26T12:34:25.964Z,0.60
2023-01-26T12:39:44.554Z,2.45
2023-01-26T12:44:52.033Z,0.88
2023-01-26T12:49:59.023Z,1.10
2023-01-26T12:55:12.820Z,0.50
2023-01-26T13:00:22.524Z,2.15
2023-01-26T13:05:28.346Z,0.30
2023-01-26T13:10:40.917Z,1.35
2023-01-26T13:15:42.494Z,3.20
2023-01-26T13:20:45.398Z,1.60
2023-01-26T13:25:54.166Z,0.20
2023-01-26T13:31:07.449Z,6.72
2023-01-26T13:36:14.809Z,1.48
2023-01-26T13:41:20.749Z,2.05
2023-01-26T13:46:29.606Z,2.13
2023-01-26T13:51:32.266Z,2.83
2023-01-26T13:56:35.521Z,0.90
2023-01-26T14:01:47.673Z,1.98
2023-01-26T14:06:51.549Z,1.27
2023-01-26T14:11:58.542Z,2.60
2023-01-26T14:17:00.652Z,1.77
2023-01-26T14:22:02.163Z,2.90
2023-01-26T14:27:03.948Z,0.25
2023-01-26T14:32:13.978Z,0.52
2023-01-26T14:37:16.731Z,1.38
2023-01-26T14:42:19.416Z,0.65
2023-01-26T14:47:20.965Z,1.80
2023-01-26T14:52:26.809Z,3.22
2023-01-26T14:57:28.576Z,2.63
2023-01-26T15:02:42.741Z,1.23
2023-01-26T15:07:46.107Z,1.58
2023-01-26T15:12:47.576Z,1.17
2023-01-26T15:17:59.897Z,1.67
2023-01-26T15:23:01.408Z,1.95
2023-01-26T15:28:03.627Z,0.22
2023-01-26T15:33:05.082Z,1.17
2023-01-26T15:38:10.612Z,1.98
2023-01-26T15:43:16.650Z,1.30
2023-01-26T15:48:18.359Z,0.55
2023-01-26T15:53:21.307Z,0.30
2023-01-26T15:58:23.467Z,2.40
2023-01-26T16:03:24.917Z,1.73
2023-01-26T16:08:26.633Z,1.58
2023-01-26T16:13:28.220Z,3.55
2023-01-26T16:18:31.254Z,11.48
2023-01-26T16:23:33.051Z,10.35
2023-01-26T16:28:34.561Z,7.75
2023-01-26T16:33:36.027Z,9.40
2023-01-26T16:38:37.755Z,5.18
2023-01-26T16:43:40.137Z,6.60
2023-01-26T16:48:41.701Z,5.25
2023-01-26T16:53:43.306Z,4.57
2023-01-26T16:58:45.337Z,2.47
2023-01-26T17:03:48.060Z,2.47
2023-01-26T17:08:49.872Z,3.60
2023-01-26T17:13:51.943Z,1.48
2023-01-26T17:18:53.483Z,2.50
2023-01-26T17:23:56.499Z,2.22
2023-01-26T17:28:58.060Z,1.73
2023-01-26T17:33:59.520Z,1.33
2023-01-26T17:39:01.005Z,2.17
2023-01-26T17:44:02.780Z,2.35
2023-01-26T17:49:04.431Z,4.47
2023-01-26T17:54:05.944Z,2.40
2023-01-26T17:59:07.417Z,1.92
2023-01-26T18:04:09.057Z,2.38
2023-01-26T18:09:10.986Z,3.22
2023-01-26T18:14:12.513Z,4.25
2023-01-26T18:19:13.975Z,2.90
2023-01-26T18:24:15.539Z,1.13
2023-01-26T18:29:17.080Z,1.05
2023-01-26T18:34:18.631Z,2.70
2023-01-26T18:39:20.138Z,2.45
2023-01-26T18:44:22.697Z,1.10
2023-01-26T18:49:24.143Z,5.10
2023-01-26T18:54:25.725Z,1.30
2023-01-26T18:59:27.280Z,0.60
2023-01-26T19:04:28.901Z,1.83
2023-01-26T19:09:33.139Z,4.55
2023-01-26T19:14:35.460Z,2.65
2023-01-26T19:19:38.284Z,3.15
2023-01-26T19:24:39.866Z,3.35
2023-01-26T19:29:41.418Z,1.15
2023-01-26T19:34:44.059Z,2.50
2023-01-26T19:39:45.529Z,1.85
2023-01-26T19:44:47.249Z,1.63
2023-01-26T19:49:48.843Z,0.57
2023-01-26T19:54:50.331Z,0.98
2023-01-26T19:59:52.396Z,1.33
2023-01-26T20:04:53.854Z,2.45
2023-01-26T20:09:55.330Z,1.73
2023-01-26T20:14:57.479Z,2.25
2023-01-26T20:20:00.111Z,2.65
2023-01-26T20:25:01.627Z,1.52
2023-01-26T20:30:04.085Z,1.25
2023-01-26T20:35:06.689Z,2.60
2023-01-26T20:40:09.299Z,1.80
2023-01-26T20:45:12.278Z,3.78
2023-01-26T20:50:14.731Z,3.10
2023-01-26T20:55:16.353Z,2.05
2023-01-26T21:00:18.005Z,10.13
2023-01-26T21:05:20.188Z,5.28
2023-01-26T21:10:21.884Z,3.33
2023-01-26T21:15:23.345Z,1.70
2023-01-26T21:20:24.806Z,1.77
2023-01-26T21:25:26.390Z,1.67
2023-01-26T21:30:28.456Z,1.80
2023-01-26T21:35:30.040Z,2.47
2023-01-26T21:40:31.574Z,1.73
2023-01-26T21:45:52.814Z,1.48
2023-01-26T21:51:16.934Z,3.42
2023-01-26T21:56:18.383Z,1.40
2023-01-26T22:01:20.583Z,2.63
2023-01-26T22:06:22.103Z,0.73
2023-01-26T22:11:23.940Z,1.45
2023-01-26T22:16:25.601Z,0.35
2023-01-26T22:21:27.120Z,0.28
2023-01-26T22:26:28.585Z,1.13
2023-01-26T22:31:30.869Z,0.50
2023-01-26T22:36:33.381Z,0.38
2023-01-26T22:41:35.921Z,3.90
2023-01-26T22:46:37.559Z,0.65
2023-01-26T22:51:39.086Z,2.85
2023-01-26T22:56:40.616Z,0.30
2023-01-26T23:01:42.808Z,0.47
2023-01-26T23:06:44.270Z,0.68
2023-01-26T23:11:45.768Z,0.63
2023-01-26T23:16:47.283Z,0.20
2023-01-26T23:21:48.815Z,0.35
2023-01-26T23:26:50.332Z,2.40
2023-01-26T23:31:51.894Z,0.30
2023-01-26T23:36:53.380Z,0.30
2023-01-26T23:41:54.976Z,0.65
2023-01-26T23:46:56.664Z,0.90
2023-01-26T23:51:58.187Z,0.40
2023-01-26T23:56:59.668Z,0.55
